createdAt,value
2022-12-19T00:01:37.881Z,99379.34
2022-12-19T00:04:09.271Z,99381.28
2022-12-19T00:06:43.636Z,99377.28
2022-12-19T00:09:11.144Z,99383.75
2022-12-19T00:11:38.794Z,99386.69
2022-12-19T00:14:06.484Z,99385.31
2022-12-19T00:16:33.605Z,99394.56
2022-12-19T00:19:01.431Z,99384.53
2022-12-19T00:21:34.672Z,99391.50
2022-12-19T00:24:03.408Z,99386.94
2022-12-19T00:26:34.013Z,99392.78
2022-12-19T00:29:12.534Z,99390.28
2022-12-19T00:31:40.837Z,99403.66
2022-12-19T00:34:07.734Z,99403.41
2022-12-19T00:36:35.071Z,99417.53
2022-12-19T00:39:08.362Z,99413.19
2022-12-19T00:41:37.338Z,99416.13
2022-12-19T00:44:09.849Z,99419.09
2022-12-19T00:46:36.909Z,99416.84
2022-12-19T00:49:05.250Z,99418.28
2022-12-19T00:51:34.417Z,99416.91
2022-12-19T00:54:02.191Z,99408.41
2022-12-19T00:56:37.090Z,99411.34
2022-12-19T00:59:04.216Z,99400.50
2022-12-19T01:01:34.452Z,99410.81
2022-12-19T01:04:27.611Z,99411.63
2022-12-19T01:06:49.949Z,99411.09
2022-12-19T01:09:17.445Z,99406.91
2022-12-19T01:12:03.011Z,99393.97
2022-12-19T01:14:29.803Z,99391.06
2022-12-19T01:16:56.400Z,99392.72
2022-12-19T01:19:23.487Z,99394.97
2022-12-19T01:21:50.198Z,99395.25
2022-12-19T01:24:19.025Z,99392.88
2022-12-19T01:26:46.403Z,99395.69
2022-12-19T01:29:13.108Z,99393.16
2022-12-19T01:31:39.820Z,99381.34
2022-12-19T01:34:06.887Z,99379.81
2022-12-19T01:36:39.577Z,99382.75
2022-12-19T01:39:07.144Z,99384.41
2022-12-19T01:41:33.774Z,99391.69
2022-12-19T01:44:02.558Z,99383.03
2022-12-19T01:46:38.496Z,99379.97
2022-12-19T01:49:10.835Z,99394.47
2022-12-19T01:51:47.336Z,99396.44
2022-12-19T01:54:19.833Z,99397.69
2022-12-19T01:56:50.760Z,99393.25
2022-12-19T01:59:25.005Z,99397.84
2022-12-19T02:01:58.647Z,99399.81
2022-12-19T02:04:28.919Z,99397.44
2022-12-19T02:07:09.378Z,99403.69
2022-12-19T02:09:45.002Z,99404.94
2022-12-19T02:12:11.920Z,99408.56
2022-12-19T02:14:39.328Z,99408.84
2022-12-19T02:17:40.147Z,99407.19
2022-12-19T02:20:15.905Z,99412.06
2022-12-19T02:22:42.736Z,99406.22
2022-12-19T02:25:18.093Z,99408.16
2022-12-19T02:27:56.272Z,99410.78
2022-12-19T02:30:32.019Z,99403.84
2022-12-19T02:33:17.810Z,99401.47
2022-12-19T02:35:51.320Z,99394.91
2022-12-19T02:38:47.795Z,99401.06
2022-12-19T02:41:28.628Z,99396.88
2022-12-19T02:43:58.778Z,99395.22
2022-12-19T02:46:26.960Z,99399.78
2022-12-19T02:48:54.358Z,99401.59
2022-12-19T02:51:21.271Z,99402.69
2022-12-19T02:53:48.496Z,99402.03
2022-12-19T02:56:36.748Z,99397.69
2022-12-19T02:59:29.215Z,99406.88
2022-12-19T03:02:03.345Z,99399.50
2022-12-19T03:05:07.488Z,99404.50
2022-12-19T03:07:54.508Z,99401.03
2022-12-19T03:10:26.338Z,99407.13
2022-12-19T03:13:16.605Z,99403.81
2022-12-19T03:15:44.939Z,99407.44
2022-12-19T03:18:12.032Z,99412.16
2022-12-19T03:20:52.369Z,99418.97
2022-12-19T03:23:19.925Z,99423.56
2022-12-19T03:25:50.350Z,99424.53
2022-12-19T03:28:24.403Z,99427.16
2022-12-19T03:30:51.755Z,99432.19
2022-12-19T03:33:20.827Z,99424.81
2022-12-19T03:35:50.677Z,99437.75
2022-12-19T03:38:20.406Z,99435.97
2022-12-19T03:40:48.169Z,99440.38
2022-12-19T03:43:17.484Z,99433.16
2022-12-19T03:46:01.144Z,99423.69
2022-12-19T03:48:36.625Z,99435.53
2022-12-19T03:51:18.550Z,99436.22
2022-12-19T03:53:49.837Z,99436.22
2022-12-19T03:56:27.315Z,99436.09
2022-12-19T03:59:02.317Z,99436.09
2022-12-19T04:01:34.074Z,99429.97
2022-12-19T04:04:03.725Z,99432.91
2022-12-19T04:06:33.212Z,99432.44
2022-12-19T04:09:00.820Z,99444.00
2022-12-19T04:11:34.776Z,99446.78
2022-12-19T04:14:03.964Z,99448.31
2022-12-19T04:16:46.011Z,99437.88
2022-12-19T04:19:21.009Z,99447.06
2022-12-19T04:21:56.804Z,99447.03
2022-12-19T04:24:28.571Z,99450.66
2022-12-19T04:26:57.812Z,99454.53
2022-12-19T04:29:26.829Z,99444.47
2022-12-19T04:31:53.474Z,99465.38
2022-12-19T04:34:21.550Z,99464.53
2022-12-19T04:36:50.666Z,99462.03
2022-12-19T04:39:17.355Z,99459.09
2022-12-19T04:41:44.348Z,99459.50
2022-12-19T04:44:11.085Z,99455.72
2022-12-19T04:46:37.719Z,99460.59
2022-12-19T04:49:04.695Z,99461.66
2022-12-19T04:51:31.625Z,99466.97
2022-12-19T04:53:58.505Z,99461.00
2022-12-19T04:56:25.274Z,99470.69
2022-12-19T04:59:00.184Z,99466.78
2022-12-19T05:01:27.469Z,99474.56
2022-12-19T05:03:56.614Z,99470.41
2022-12-19T05:06:25.341Z,99470.66
2022-12-19T05:08:52.681Z,99463.50
2022-12-19T05:11:20.136Z,99467.72
2022-12-19T05:13:47.356Z,99469.06
2022-12-19T05:16:16.131Z,99478.94
2022-12-19T05:18:43.626Z,99476.41
2022-12-19T05:21:11.137Z,99481.97
2022-12-19T05:23:38.624Z,99490.97
2022-12-19T05:26:06.528Z,99497.22
2022-12-19T05:28:34.665Z,99493.88
2022-12-19T05:31:07.418Z,99488.84
2022-12-19T05:33:34.719Z,99491.75
2022-12-19T05:36:01.445Z,99490.47
2022-12-19T05:38:29.101Z,99501.47
2022-12-19T05:40:55.843Z,99502.44
2022-12-19T05:43:22.567Z,99499.81
2022-12-19T05:45:49.563Z,99509.28
2022-12-19T05:48:16.172Z,99501.94
2022-12-19T05:50:47.563Z,99506.09
2022-12-19T05:53:14.457Z,99508.63
2022-12-19T05:55:41.355Z,99512.44
2022-12-19T05:58:07.907Z,99507.00
2022-12-19T06:00:34.732Z,99513.69
2022-12-19T06:03:01.362Z,99512.75
2022-12-19T06:05:27.980Z,99523.03
2022-12-19T06:07:55.063Z,99524.44
2022-12-19T06:10:21.666Z,99518.22
2022-12-19T06:12:48.214Z,99528.63
2022-12-19T06:15:15.203Z,99526.13
2022-12-19T06:17:41.807Z,99529.88
2022-12-19T06:20:08.974Z,99543.41
2022-12-19T06:22:35.898Z,99546.03
2022-12-19T06:25:02.490Z,99546.72
2022-12-19T06:27:29.080Z,99554.28
2022-12-19T06:29:56.666Z,99557.38
2022-12-19T06:32:23.247Z,99562.13
2022-12-19T06:35:05.273Z,99559.09
2022-12-19T06:37:32.315Z,99562.16
2022-12-19T06:39:59.152Z,99557.59
2022-12-19T06:42:25.818Z,99560.25
2022-12-19T06:44:54.363Z,99560.94
2022-12-19T06:47:23.901Z,99565.03
2022-12-19T06:49:50.511Z,99555.13
2022-12-19T06:52:18.435Z,99562.53
2022-12-19T06:54:47.074Z,99568.53
2022-12-19T06:57:13.618Z,99568.66
2022-12-19T06:59:41.011Z,99564.34
2022-12-19T07:02:19.924Z,99560.59
2022-12-19T07:04:57.983Z,99565.88
2022-12-19T07:07:28.482Z,99562.22
2022-12-19T07:09:55.294Z,99572.09
2022-12-19T07:12:22.076Z,99573.63
2022-12-19T07:14:53.129Z,99573.78
2022-12-19T07:17:22.109Z,99586.03
2022-12-19T07:19:52.031Z,99580.88
2022-12-19T07:22:18.848Z,99587.81
2022-12-19T07:24:45.749Z,99585.88
2022-12-19T07:27:13.380Z,99584.94
2022-12-19T07:29:40.172Z,99586.84
2022-12-19T07:32:06.965Z,99575.84
2022-12-19T07:34:33.719Z,99586.16
2022-12-19T07:37:00.598Z,99585.03
2022-12-19T07:39:27.226Z,99583.22
2022-12-19T07:41:53.958Z,99578.53
2022-12-19T07:44:20.762Z,99573.13
2022-12-19T07:46:48.035Z,99572.97
2022-12-19T07:49:19.568Z,99563.94
2022-12-19T07:51:49.245Z,99572.47
2022-12-19T07:54:16.671Z,99566.34
2022-12-19T07:56:43.257Z,99565.22
2022-12-19T07:59:10.295Z,99562.56
2022-12-19T08:01:37.049Z,99566.06
2022-12-19T08:04:03.771Z,99570.50
2022-12-19T08:06:30.977Z,99565.34
2022-12-19T08:08:57.651Z,99560.50
2022-12-19T08:11:27.576Z,99559.00
2022-12-19T08:13:54.507Z,99559.31
2022-12-19T08:16:21.877Z,99561.28
2022-12-19T08:18:48.618Z,99557.25
2022-12-19T08:21:15.387Z,99557.69
2022-12-19T08:23:42.119Z,99564.38
2022-12-19T08:26:12.372Z,99563.00
2022-12-19T08:28:39.078Z,99563.56
2022-12-19T08:31:17.866Z,99555.50
2022-12-19T08:33:45.083Z,99564.03
2022-12-19T08:36:14.551Z,99556.06
2022-12-19T08:38:41.331Z,99565.84
2022-12-19T08:41:09.050Z,99554.41
2022-12-19T08:43:36.028Z,99553.59
2022-12-19T08:46:02.883Z,99553.72
2022-12-19T08:48:30.998Z,99552.91
2022-12-19T08:51:00.060Z,99553.03
2022-12-19T08:53:28.815Z,99555.81
2022-12-19T08:56:00.297Z,99564.16
2022-12-19T08:58:28.939Z,99560.56
2022-12-19T09:01:05.378Z,99566.41
2022-12-19T09:03:56.200Z,99566.81
2022-12-19T09:06:20.431Z,99567.19
2022-12-19T09:08:47.355Z,99557.69
2022-12-19T09:11:16.603Z,99556.84
2022-12-19T09:13:45.166Z,99556.13
2022-12-19T09:16:14.500Z,99541.75
2022-12-19T09:18:48.071Z,99552.75
2022-12-19T09:21:15.729Z,99547.97
2022-12-19T09:23:43.286Z,99537.50
2022-12-19T09:26:13.399Z,99538.88
2022-12-19T09:28:41.623Z,99551.56
2022-12-19T09:31:13.939Z,99532.97
2022-12-19T09:33:43.666Z,99536.25
2022-12-19T09:36:28.670Z,99538.53
2022-12-19T09:38:57.212Z,99526.88
2022-12-19T09:41:34.119Z,99523.88
2022-12-19T09:44:10.780Z,99523.34
2022-12-19T09:47:03.319Z,99531.63
2022-12-19T09:49:36.664Z,99516.41
2022-12-19T09:52:20.826Z,99512.53
2022-12-19T09:54:56.584Z,99509.94
2022-12-19T09:57:26.739Z,99514.19
2022-12-19T10:00:33.267Z,99511.63
2022-12-19T10:03:05.544Z,99506.22
2022-12-19T10:06:53.630Z,99501.09
2022-12-19T10:10:00.055Z,99500.13
2022-12-19T10:12:38.461Z,99491.91
2022-12-19T10:15:06.512Z,99492.13
2022-12-19T10:17:52.812Z,99497.19
2022-12-19T10:20:31.123Z,99493.38
2022-12-19T10:23:32.027Z,99487.09
2022-12-19T10:26:32.512Z,99492.59
2022-12-19T10:29:07.174Z,99494.75
2022-12-19T10:31:37.079Z,99491.09
2022-12-19T10:34:24.471Z,99488.44
2022-12-19T10:37:27.267Z,99486.97
2022-12-19T10:40:05.588Z,99486.63
2022-12-19T10:43:15.421Z,99476.31
2022-12-19T10:45:54.110Z,99471.81
2022-12-19T10:48:30.720Z,99472.34
2022-12-19T10:50:58.043Z,99472.47
2022-12-19T10:53:29.948Z,99475.00
2022-12-19T10:56:13.151Z,99473.97
2022-12-19T10:58:44.127Z,99461.66
2022-12-19T11:01:14.523Z,99458.31
2022-12-19T11:03:48.512Z,99463.84
2022-12-19T11:06:48.945Z,99467.50
2022-12-19T11:09:29.778Z,99464.53
2022-12-19T11:16:10.278Z,99463.69
2022-12-19T11:20:28.129Z,99458.03
2022-12-19T11:25:24.863Z,99470.53
2022-12-19T11:29:19.748Z,99468.50
2022-12-19T11:29:33.478Z,99465.84
2022-12-19T11:30:34.291Z,99463.53
2022-12-19T11:32:42.943Z,99460.53
2022-12-19T11:35:24.815Z,99457.50
2022-12-19T11:37:57.953Z,99465.03
2022-12-19T11:40:44.671Z,99466.19
2022-12-19T11:43:44.444Z,99451.03
2022-12-19T11:46:36.713Z,99463.19
2022-12-19T11:49:31.320Z,99465.34
2022-12-19T11:52:06.348Z,99454.00
2022-12-19T11:55:08.275Z,99454.81
2022-12-19T11:57:42.446Z,99439.50
2022-12-19T12:00:17.763Z,99448.31
2022-12-19T12:03:03.043Z,99432.47
2022-12-19T12:05:39.963Z,99431.09
2022-12-19T12:09:45.155Z,99431.41
2022-12-19T12:18:20.335Z,99430.94
2022-12-19T12:23:13.373Z,99443.75
2022-12-19T12:30:52.361Z,99430.56
2022-12-19T12:31:09.793Z,99430.03
2022-12-19T12:31:23.085Z,99429.34
2022-12-19T12:32:05.781Z,99432.69
2022-12-19T12:35:08.606Z,99434.19
2022-12-19T12:35:38.054Z,99416.63
2022-12-19T12:39:18.050Z,99426.28
2022-12-19T12:42:08.933Z,99429.25
2022-12-19T12:44:45.247Z,99421.25
2022-12-19T12:47:24.830Z,99430.28
2022-12-19T12:50:02.062Z,99432.75
2022-12-19T12:52:37.158Z,99433.59
2022-12-19T12:55:25.160Z,99436.25
2022-12-19T12:57:52.142Z,99432.28
2022-12-19T13:00:25.817Z,99440.13
2022-12-19T13:03:19.394Z,99437.16
2022-12-19T13:05:46.306Z,99431.16
2022-12-19T13:08:25.885Z,99430.31
2022-12-19T13:10:59.236Z,99429.69
2022-12-19T13:13:56.308Z,99431.53
2022-12-19T13:16:45.302Z,99425.31
2022-12-19T13:19:25.791Z,99420.66
2022-12-19T13:22:03.993Z,99422.66
2022-12-19T13:24:41.865Z,99410.66
2022-12-19T13:27:20.676Z,99407.03
2022-12-19T13:30:00.133Z,99405.72
2022-12-19T13:32:31.963Z,99389.41
2022-12-19T13:35:31.527Z,99382.91
2022-12-19T13:39:54.163Z,99386.25
2022-12-19T13:41:25.955Z,99378.91
2022-12-19T13:43:59.707Z,99385.41
2022-12-19T13:46:35.493Z,99392.41
2022-12-19T13:49:17.825Z,99403.41
2022-12-19T13:51:52.087Z,99401.28
2022-12-19T13:54:22.956Z,99392.63
2022-12-19T13:56:51.135Z,99405.63
2022-12-19T13:59:19.555Z,99400.47
2022-12-19T14:01:46.524Z,99399.47
2022-12-19T14:04:30.566Z,99405.81
2022-12-19T14:07:36.024Z,99398.63
2022-12-19T14:11:43.142Z,99399.81
2022-12-19T14:14:01.450Z,99395.13
2022-12-19T14:16:01.050Z,99410.00
2022-12-19T14:18:42.827Z,99407.50
2022-12-19T14:22:11.290Z,99399.84
2022-12-19T14:24:09.529Z,99397.69
2022-12-19T14:28:19.305Z,99388.88
2022-12-19T14:30:28.858Z,99386.75
2022-12-19T14:33:44.377Z,99392.56
2022-12-19T14:36:10.853Z,99400.22
2022-12-19T14:39:25.720Z,99396.25
2022-12-19T14:41:09.299Z,99406.56
2022-12-19T14:43:56.905Z,99407.88
2022-12-19T14:54:04.030Z,99403.06
2022-12-19T14:54:13.171Z,99407.88
2022-12-19T14:54:29.350Z,99401.88
2022-12-19T14:56:11.393Z,99408.22
2022-12-19T14:58:52.270Z,99402.22
2022-12-19T15:01:39.591Z,99402.34
2022-12-19T15:04:53.511Z,99397.84
2022-12-19T15:07:13.858Z,99395.03
2022-12-19T15:11:06.715Z,99389.19
2022-12-19T15:14:54.587Z,99392.50
2022-12-19T15:16:07.581Z,99401.63
2022-12-19T15:18:34.590Z,99395.44
2022-12-19T15:21:04.183Z,99395.06
2022-12-19T15:23:31.713Z,99386.75
2022-12-19T15:26:07.700Z,99385.72
2022-12-19T15:28:43.252Z,99389.19
2022-12-19T15:31:32.380Z,99391.66
2022-12-19T15:34:33.079Z,99393.13
2022-12-19T15:36:46.233Z,99396.94
2022-12-19T15:39:15.139Z,99400.22
2022-12-19T15:41:42.681Z,99388.88
2022-12-19T15:44:32.935Z,99390.88
2022-12-19T15:47:01.062Z,99394.44
2022-12-19T15:49:27.805Z,99398.41
2022-12-19T15:51:54.682Z,99400.56
2022-12-19T15:54:47.827Z,99396.72
2022-12-19T15:57:30.690Z,99393.00
2022-12-19T16:00:00.978Z,99387.66
2022-12-19T16:02:56.321Z,99395.22
2022-12-19T16:05:15.836Z,99398.13
2022-12-19T16:07:42.678Z,99397.47
2022-12-19T16:10:11.400Z,99398.59
2022-12-19T16:12:55.582Z,99405.50
2022-12-19T16:15:27.635Z,99400.28
2022-12-19T16:17:54.738Z,99400.59
2022-12-19T16:20:24.997Z,99408.16
2022-12-19T16:22:51.624Z,99402.34
2022-12-19T16:25:18.698Z,99393.84
2022-12-19T16:27:56.904Z,99389.00
2022-12-19T16:30:27.927Z,99392.25
2022-12-19T16:32:54.627Z,99393.00
2022-12-19T16:35:47.279Z,99391.47
2022-12-19T16:38:10.880Z,99383.13
2022-12-19T16:40:37.808Z,99388.75
2022-12-19T16:43:07.853Z,99390.19
2022-12-19T16:45:34.652Z,99399.81
2022-12-19T16:48:01.543Z,99395.97
2022-12-19T16:50:30.968Z,99392.06
2022-12-19T16:52:58.005Z,99395.19
2022-12-19T16:55:26.494Z,99394.63
2022-12-19T16:57:56.269Z,99379.22
2022-12-19T17:00:24.534Z,99389.25
2022-12-19T17:02:57.633Z,99393.47
2022-12-19T17:05:29.456Z,99382.31
2022-12-19T17:07:56.757Z,99379.97
2022-12-19T17:10:30.423Z,99383.72
2022-12-19T17:12:58.696Z,99383.91
2022-12-19T17:15:27.543Z,99377.22
2022-12-19T17:17:58.354Z,99372.22
2022-12-19T17:20:28.784Z,99379.19
2022-12-19T17:22:55.431Z,99378.63
2022-12-19T17:25:27.395Z,99383.69
2022-12-19T17:27:55.780Z,99368.22
2022-12-19T17:30:22.506Z,99356.16
2022-12-19T17:32:53.856Z,99378.72
2022-12-19T17:35:27.719Z,99372.88
2022-12-19T17:37:55.174Z,99373.56
2022-12-19T17:40:27.478Z,99371.50
2022-12-19T17:42:54.758Z,99374.56
2022-12-19T17:45:23.325Z,99371.38
2022-12-19T17:47:51.603Z,99382.28
2022-12-19T17:50:27.025Z,99375.44
2022-12-19T17:52:54.905Z,99367.94
2022-12-19T17:55:28.036Z,99376.28
2022-12-19T17:57:55.661Z,99372.72
2022-12-19T18:00:30.436Z,99380.66
2022-12-19T18:03:02.345Z,99361.72
2022-12-19T18:05:33.641Z,99371.31
2022-12-19T18:08:00.440Z,99365.09
2022-12-19T18:10:29.388Z,99363.41
2022-12-19T18:12:56.805Z,99350.59
2022-12-19T18:15:24.293Z,99349.59
2022-12-19T18:17:53.825Z,99351.59
2022-12-19T18:20:21.209Z,99345.75
2022-12-19T18:22:50.794Z,99338.50
2022-12-19T18:25:23.161Z,99343.09
2022-12-19T18:27:50.265Z,99355.78
2022-12-19T18:30:18.022Z,99351.19
2022-12-19T18:32:48.004Z,99349.38
2022-12-19T18:35:23.301Z,99346.06
2022-12-19T18:37:51.703Z,99351.63
2022-12-19T18:40:29.287Z,99340.47
2022-12-19T18:42:58.103Z,99341.59
2022-12-19T18:45:37.697Z,99340.75
2022-12-19T18:48:18.478Z,99332.44
2022-12-19T18:50:45.054Z,99338.81
2022-12-19T18:53:13.705Z,99332.16
2022-12-19T18:55:40.892Z,99335.06
2022-12-19T18:58:07.481Z,99337.97
2022-12-19T19:00:35.602Z,99333.13
2022-12-19T19:03:05.899Z,99335.06
2022-12-19T19:05:35.641Z,99341.75
2022-12-19T19:08:20.001Z,99336.06
2022-12-19T19:10:47.497Z,99331.03
2022-12-19T19:13:16.524Z,99327.41
2022-12-19T19:15:51.571Z,99322.69
2022-12-19T19:18:24.388Z,99327.53
2022-12-19T19:21:00.515Z,99322.25
2022-12-19T19:23:41.320Z,99319.03
2022-12-19T19:26:08.175Z,99324.06
2022-12-19T19:28:37.290Z,99315.44
2022-12-19T19:31:09.005Z,99312.09
2022-12-19T19:33:40.659Z,99314.88
2022-12-19T19:36:13.113Z,99314.72
2022-12-19T19:38:43.067Z,99313.91
2022-12-19T19:41:09.791Z,99312.34
2022-12-19T19:43:37.664Z,99305.81
2022-12-19T19:46:04.920Z,99304.28
2022-12-19T19:48:31.788Z,99302.19
2022-12-19T19:50:58.446Z,99288.00
2022-12-19T19:53:25.553Z,99293.53
2022-12-19T19:56:01.021Z,99306.63
2022-12-19T19:58:29.180Z,99298.81
2022-12-19T20:00:56.906Z,99290.06
2022-12-19T20:03:24.584Z,99292.00
2022-12-19T20:05:59.737Z,99301.88
2022-12-19T20:08:26.694Z,99301.88
2022-12-19T20:10:57.671Z,99294.50
2022-12-19T20:13:25.049Z,99298.53
2022-12-19T20:15:52.326Z,99294.22
2022-12-19T20:18:19.182Z,99295.22
2022-12-19T20:20:48.587Z,99291.84
2022-12-19T20:23:15.223Z,99285.16
2022-12-19T20:25:43.178Z,99274.75
2022-12-19T20:28:10.099Z,99270.56
2022-12-19T20:30:37.852Z,99265.81
2022-12-19T20:33:04.573Z,99253.44
2022-12-19T20:35:31.806Z,99249.16
2022-12-19T20:37:58.443Z,99254.28
2022-12-19T20:40:25.180Z,99261.47
2022-12-19T20:42:56.158Z,99276.75
2022-12-19T20:45:22.819Z,99269.25
2022-12-19T20:47:49.477Z,99267.44
2022-12-19T20:50:16.623Z,99264.13
2022-12-19T20:52:43.307Z,99253.56
2022-12-19T20:55:10.464Z,99258.00
2022-12-19T20:57:37.166Z,99249.53
2022-12-19T21:00:05.754Z,99256.19
2022-12-19T21:02:52.560Z,99249.25
2022-12-19T21:05:20.812Z,99244.81
2022-12-19T21:07:47.939Z,99247.81
2022-12-19T21:10:14.644Z,99241.03
2022-12-19T21:12:47.368Z,99242.13
2022-12-19T21:15:14.753Z,99242.97
2022-12-19T21:17:41.457Z,99243.94
2022-12-19T21:20:12.837Z,99239.06
2022-12-19T21:22:39.573Z,99231.25
2022-12-19T21:25:06.600Z,99229.88
2022-12-19T21:27:34.517Z,99224.28
2022-12-19T21:30:01.113Z,99244.56
2022-12-19T21:32:27.916Z,99243.47
2022-12-19T21:34:55.067Z,99245.38
2022-12-19T21:37:24.192Z,99255.94
2022-12-19T21:39:50.818Z,99258.72
2022-12-19T21:42:17.763Z,99250.25
2022-12-19T21:44:44.775Z,99242.59
2022-12-19T21:47:11.479Z,99246.88
2022-12-19T21:49:42.764Z,99252.16
2022-12-19T21:52:10.155Z,99255.19
2022-12-19T21:54:36.853Z,99257.25
2022-12-19T21:57:03.952Z,99248.66
2022-12-19T21:59:30.630Z,99241.25
2022-12-19T22:01:58.221Z,99249.03
2022-12-19T22:04:27.697Z,99246.69
2022-12-19T22:06:54.339Z,99231.50
2022-12-19T22:09:25.424Z,99241.09
2022-12-19T22:11:52.617Z,99240.25
2022-12-19T22:14:19.293Z,99231.78
2022-12-19T22:16:46.008Z,99241.34
2022-12-19T22:19:16.778Z,99234.41
2022-12-19T22:21:44.854Z,99235.66
2022-12-19T22:24:13.341Z,99235.19
2022-12-19T22:26:40.718Z,99224.31
2022-12-19T22:29:09.783Z,99243.34
2022-12-19T22:31:37.526Z,99240.03
2022-12-19T22:34:07.226Z,99232.94
2022-12-19T22:36:36.882Z,99227.78
2022-12-19T22:39:06.793Z,99222.41
2022-12-19T22:41:39.734Z,99224.88
2022-12-19T22:44:07.532Z,99222.25
2022-12-19T22:46:37.547Z,99230.31
2022-12-19T22:49:06.962Z,99225.72
2022-12-19T22:51:35.309Z,99222.09
2022-12-19T22:54:02.352Z,99219.72
2022-12-19T22:56:31.098Z,99213.78
2022-12-19T22:59:01.603Z,99221.78
2022-12-19T23:01:34.921Z,99212.34
2022-12-19T23:04:03.557Z,99206.38
2022-12-19T23:06:32.688Z,99210.09
2022-12-19T23:08:59.814Z,99212.03
2022-12-19T23:11:30.774Z,99212.28
2022-12-19T23:13:57.490Z,99209.47
2022-12-19T23:16:24.357Z,99209.72
2022-12-19T23:18:51.279Z,99203.63
2022-12-19T23:21:20.718Z,99209.56
2022-12-19T23:23:49.697Z,99189.69
2022-12-19T23:26:25.421Z,99210.81
2022-12-19T23:28:58.124Z,99208.31
2022-12-19T23:31:25.738Z,99213.69
2022-12-19T23:33:52.712Z,99217.19
2022-12-19T23:36:32.599Z,99213.00
2022-12-19T23:39:06.768Z,99211.19
2022-12-19T23:41:33.796Z,99215.88
2022-12-19T23:44:00.520Z,99210.47
2022-12-19T23:46:27.750Z,99205.84
2022-12-19T23:48:54.591Z,99212.53
2022-12-19T23:51:25.197Z,99214.31
2022-12-19T23:53:53.020Z,99215.28
2022-12-19T23:56:22.305Z,99212.81
2022-12-19T23:58:48.909Z,99214.56
